Time;durP1;ratioP1;P1;durP2;ratioP2;P2;SDS_P1;SDS_P2;PMS_P1;PMS_P2;Temp;Humidity;BMP_temperature;BMP_pressure;BME280_temperature;BME280_humidity;BME280_pressure;Samples;Min_cycle;Max_cycle;Signal;HPM_P1;HPM_P2
2024/02/17 00:00:17;;;;;;;20.50;11.13;;;;;;;7.81;80.43;100824.13;5001488;28;20034;-62
2024/02/17 00:02:43;;;;;;;20.67;12.43;;;;;;;7.78;79.58;100817.28;5001632;28;20045;-61
2024/02/17 00:05:08;;;;;;;24.08;11.52;;;;;;;7.77;80.11;100822.69;5002234;28;20034;-62
2024/02/17 00:07:34;;;;;;;19.25;11.68;;;;;;;7.87;79.34;100826.28;5002045;28;20030;-61
2024/02/17 00:09:59;;;;;;;23.30;11.52;;;;;;;7.97;78.33;100819.34;5002090;28;20042;-62
2024/02/17 00:12:25;;;;;;;23.83;12.85;;;;;;;7.98;76.87;100821.03;5001739;28;20239;-62
2024/02/17 00:14:50;;;;;;;23.50;12.68;;;;;;;8.02;75.69;100820.66;5002077;28;20034;-63
2024/02/17 00:17:16;;;;;;;24.13;13.63;;;;;;;7.89;76.58;100819.94;5001718;28;20050;-61
2024/02/17 00:19:41;;;;;;;20.85;12.48;;;;;;;7.78;78.46;100819.09;5001954;28;20043;-61
2024/02/17 00:22:07;;;;;;;23.65;12.80;;;;;;;7.74;80.35;100821.13;5001121;28;20030;-62
2024/02/17 00:24:32;;;;;;;23.55;13.07;;;;;;;7.76;81.13;100818.38;5001122;28;20069;-62
2024/02/17 00:26:58;;;;;;;23.83;13.77;;;;;;;7.77;81.57;100818.25;5001075;28;20335;-63
2024/02/17 00:29:23;;;;;;;26.67;17.00;;;;;;;7.87;81.38;100818.38;5001629;28;20066;-62
2024/02/17 00:31:49;;;;;;;31.08;17.95;;;;;;;7.90;81.89;100816.34;5001117;28;20049;-62
2024/02/17 00:34:18;;;;;;;21.00;14.32;;;;;;;7.95;81.27;100818.63;5001244;28;20034;-61
2024/02/17 00:36:44;;;;;;;23.13;14.73;;;;;;;7.96;81.64;100821.13;5001695;28;20038;-62
2024/02/17 00:39:09;;;;;;;22.50;12.02;;;;;;;8.01;81.49;100815.50;5001392;28;20300;-62
2024/02/17 00:41:36;;;;;;;22.02;12.07;;;;;;;8.04;81.70;100817.06;5000515;28;20034;-61
2024/02/17 00:44:01;;;;;;;19.08;10.95;;;;;;;8.15;81.52;100817.06;5001095;28;20034;-61
2024/02/17 00:46:27;;;;;;;20.65;11.75;;;;;;;8.26;80.81;100822.34;4999196;28;20026;-63
2024/02/17 00:48:52;;;;;;;21.15;11.93;;;;;;;8.12;79.89;100807.59;5001221;28;20057;-63
2024/02/17 00:51:17;;;;;;;20.30;11.15;;;;;;;7.97;80.60;100809.63;5001370;28;20046;-62
2024/02/17 00:53:43;;;;;;;25.13;11.15;;;;;;;8.11;80.25;100820.91;5000635;28;20039;-61
2024/02/17 00:56:09;;;;;;;19.73;11.07;;;;;;;8.09;80.05;100815.75;5000620;28;20363;-62
2024/02/17 00:58:34;;;;;;;21.75;11.27;;;;;;;8.11;79.23;100823.53;5001031;28;20097;-63
2024/02/17 01:01:00;;;;;;;21.10;11.20;;;;;;;8.06;79.76;100823.06;5000712;28;20034;-62
2024/02/17 01:03:25;;;;;;;25.88;12.10;;;;;;;8.07;79.71;100819.47;5001007;28;20205;-61
2024/02/17 01:05:51;;;;;;;22.63;11.48;;;;;;;8.13;80.04;100822.47;5000736;28;20034;-61
2024/02/17 01:08:16;;;;;;;19.80;10.98;;;;;;;7.89;79.22;100819.94;4999450;28;20049;-61
2024/02/17 01:10:42;;;;;;;20.83;11.25;;;;;;;7.84;79.98;100821.25;5000395;28;20419;-61
2024/02/17 01:13:09;;;;;;;26.23;12.38;;;;;;;7.78;78.30;100813.81;5000013;28;20370;-62
2024/02/17 01:15:35;;;;;;;21.35;11.48;;;;;;;7.67;77.41;100812.00;5000501;28;20595;-63
2024/02/17 01:18:01;;;;;;;23.17;12.35;;;;;;;7.69;78.44;100804.81;5000159;28;20255;-63
2024/02/17 01:20:26;;;;;;;24.23;12.73;;;;;;;7.69;77.70;100815.34;5000172;28;20070;-61
2024/02/17 01:22:52;;;;;;;25.13;13.73;;;;;;;7.66;77.93;100813.78;5000164;28;20085;-61
2024/02/17 01:25:18;;;;;;;22.83;12.18;;;;;;;7.72;77.03;100823.03;5000642;28;20034;-62
2024/02/17 01:27:43;;;;;;;22.75;12.88;;;;;;;7.73;78.29;100810.69;5000469;28;20030;-62
2024/02/17 01:30:09;;;;;;;24.33;13.40;;;;;;;7.78;78.19;100814.66;4998734;28;20340;-62
2024/02/17 01:32:34;;;;;;;22.05;11.88;;;;;;;7.79;75.06;100811.06;5000217;28;20044;-63
2024/02/17 01:34:59;;;;;;;25.27;12.52;;;;;;;7.75;76.45;100809.63;5000153;28;20217;-62
2024/02/17 01:37:25;;;;;;;27.00;12.70;;;;;;;7.79;76.16;100811.06;5000092;28;20038;-62
2024/02/17 01:39:50;;;;;;;21.23;11.90;;;;;;;7.82;75.70;100802.91;4999943;28;20356;-61
2024/02/17 01:42:16;;;;;;;23.17;12.52;;;;;;;7.87;75.05;100807.81;5000388;28;20041;-62
2024/02/17 01:44:42;;;;;;;18.42;10.98;;;;;;;7.87;74.37;100807.81;5000534;28;20053;-62
2024/02/17 01:47:09;;;;;;;21.17;10.73;;;;;;;7.80;73.97;100804.81;4999874;28;20052;-63
2024/02/17 01:49:35;;;;;;;17.85;9.70;;;;;;;7.81;74.27;100803.03;5000052;28;20034;-61
2024/02/17 01:52:02;;;;;;;24.08;11.02;;;;;;;7.67;74.38;100796.19;4999879;28;20352;-61
2024/02/17 01:54:28;;;;;;;21.58;10.55;;;;;;;7.61;74.98;100801.91;4998702;28;20030;-61
2024/02/17 01:56:55;;;;;;;18.05;9.95;;;;;;;7.47;74.58;100794.22;4999276;28;20057;-61
2024/02/17 01:59:21;;;;;;;18.48;9.70;;;;;;;7.42;75.66;100801.66;4999681;28;20030;-61
2024/02/17 02:01:48;;;;;;;22.08;10.95;;;;;;;7.38;76.22;100790.50;4999438;28;20042;-63
2024/02/17 02:04:14;;;;;;;20.75;10.65;;;;;;;7.35;76.23;100796.84;4998245;28;20061;-62
2024/02/17 02:06:39;;;;;;;22.23;10.90;;;;;;;7.30;75.94;100791.06;4998414;28;20034;-62
2024/02/17 02:09:05;;;;;;;24.65;12.30;;;;;;;7.18;76.29;100789.34;4999373;28;20370;-61
2024/02/17 02:11:31;;;;;;;23.20;12.68;;;;;;;6.85;77.14;100758.44;4999318;28;20105;-61
2024/02/17 02:14:16;;;;;;;25.60;11.68;;;;;;;6.96;77.22;100791.88;4999057;28;20042;-61
2024/02/17 02:16:43;;;;;;;19.90;10.63;;;;;;;6.86;78.47;100794.34;4997942;28;20114;-62
2024/02/17 02:19:08;;;;;;;22.08;10.63;;;;;;;6.87;78.51;100796.03;4999075;28;20076;-61
2024/02/17 02:21:41;;;;;;;22.58;11.20;;;;;;;6.87;78.91;100800.47;4997807;28;20046;-60
2024/02/17 02:24:07;;;;;;;19.50;10.25;;;;;;;6.83;78.69;100797.22;4999112;28;20045;-61
2024/02/17 02:26:32;;;;;;;16.35;10.43;;;;;;;6.85;78.97;100803.19;4997247;28;20212;-61
2024/02/17 02:28:58;;;;;;;21.15;10.90;;;;;;;6.92;78.39;100793.06;4998543;28;20037;-60
2024/02/17 02:31:25;;;;;;;19.63;10.27;;;;;;;6.92;79.57;100795.69;4995995;28;20399;-61
2024/02/17 02:33:51;;;;;;;19.63;12.02;;;;;;;6.97;78.81;100794.41;4997762;28;20062;-62
2024/02/17 02:36:23;;;;;;;20.48;13.95;;;;;;;7.01;78.73;100793.22;4997146;28;20034;-62
2024/02/17 02:38:49;;;;;;;23.17;15.48;;;;;;;6.91;78.36;100799.28;4997414;28;20038;-61
2024/02/17 02:41:15;;;;;;;23.52;13.07;;;;;;;6.70;79.02;100797.28;4996543;28;20302;-60
2024/02/17 02:43:41;;;;;;;22.83;11.73;;;;;;;6.53;80.34;100800.28;4997055;28;20331;-60
2024/02/17 02:46:06;;;;;;;22.77;12.20;;;;;;;6.38;81.24;100799.59;4997391;28;20104;-63
2024/02/17 02:48:32;;;;;;;22.83;12.70;;;;;;;6.41;81.45;100801.16;4997177;28;20117;-62
2024/02/17 02:51:01;;;;;;;27.70;16.52;;;;;;;6.50;80.76;100799.66;4997042;28;20057;-61
2024/02/17 02:53:26;;;;;;;21.48;13.85;;;;;;;6.44;81.15;100806.19;4997310;28;20080;-60
2024/02/17 02:55:52;;;;;;;21.98;12.02;;;;;;;6.58;79.90;100798.16;4996881;28;20382;-61
2024/02/17 02:58:18;;;;;;;18.33;10.80;;;;;;;6.46;78.97;100791.16;4994955;28;20271;-61
2024/02/17 03:00:44;;;;;;;20.92;11.80;;;;;;;6.45;79.53;100800.00;4997820;28;20058;-61
2024/02/17 03:03:10;;;;;;;20.77;11.13;;;;;;;6.41;79.21;100788.00;4995579;28;20046;-62
2024/02/17 03:05:35;;;;;;;19.88;11.63;;;;;;;6.44;78.58;100790.41;4997239;28;20186;-62
2024/02/17 03:08:00;;;;;;;20.67;10.63;;;;;;;6.37;78.86;100803.16;4995747;28;20049;-61
2024/02/17 03:10:26;;;;;;;16.08;10.02;;;;;;;6.35;78.77;100798.97;4997071;28;20036;-60
2024/02/17 03:12:52;;;;;;;17.67;10.02;;;;;;;6.20;79.11;100800.03;4996379;28;20330;-60
2024/02/17 03:15:17;;;;;;;18.25;10.68;;;;;;;6.12;79.56;100805.81;4997502;28;20049;-62
2024/02/17 03:17:43;;;;;;;22.05;12.23;;;;;;;6.11;80.39;100809.41;4996710;28;20040;-63
2024/02/17 03:20:08;;;;;;;21.38;12.25;;;;;;;6.20;79.00;100810.53;4997391;28;20042;-62
2024/02/17 03:22:35;;;;;;;23.25;11.75;;;;;;;6.19;79.63;100811.50;4996982;28;20901;-61
2024/02/17 03:25:00;;;;;;;20.38;10.85;;;;;;;6.22;79.19;100811.28;4996828;28;20030;-61
2024/02/17 03:27:27;;;;;;;19.33;11.07;;;;;;;6.32;79.25;100813.19;4996946;28;20030;-61
2024/02/17 03:29:53;;;;;;;23.85;12.75;;;;;;;6.39;78.75;100811.78;4995093;28;20042;-61
2024/02/17 03:32:18;;;;;;;22.13;12.60;;;;;;;6.31;78.82;100811.50;4997694;28;20113;-61
2024/02/17 03:34:44;;;;;;;21.25;12.35;;;;;;;6.37;78.20;100821.59;4996309;28;20030;-60
2024/02/17 03:37:09;;;;;;;22.25;12.07;;;;;;;6.37;78.74;100820.75;4997455;28;20042;-62
2024/02/17 03:39:35;;;;;;;23.73;12.50;;;;;;;6.37;78.18;100823.38;4996458;28;20283;-61
2024/02/17 03:42:01;;;;;;;22.27;11.95;;;;;;;6.36;78.36;100827.78;4996904;28;20037;-61
2024/02/17 03:44:26;;;;;;;20.38;11.50;;;;;;;6.38;77.14;100825.91;4996525;28;20034;-60
2024/02/17 03:46:52;;;;;;;22.50;10.77;;;;;;;6.40;76.94;100825.78;4996816;28;20065;-62
2024/02/17 03:49:20;;;;;;;21.88;11.70;;;;;;;6.32;77.06;100828.13;4995981;28;20315;-62
2024/02/17 03:51:47;;;;;;;24.55;12.13;;;;;;;6.24;77.75;100831.28;4996476;28;20041;-62
2024/02/17 03:54:12;;;;;;;19.70;11.65;;;;;;;6.22;77.46;100833.16;4996637;28;20042;-61
2024/02/17 03:56:37;;;;;;;23.38;11.60;;;;;;;6.17;77.59;100827.38;4996325;28;20267;-61
2024/02/17 03:59:03;;;;;;;23.65;13.57;;;;;;;6.27;77.54;100828.44;4997203;28;20049;-61
2024/02/17 04:01:34;;;;;;;21.55;13.93;;;;;;;6.37;76.89;100820.75;4996170;28;20061;-61
2024/02/17 04:04:03;;;;;;;25.58;14.98;;;;;;;6.42;76.01;100826.53;4996812;28;20058;-61
2024/02/17 04:06:29;;;;;;;24.45;13.40;;;;;;;6.42;75.54;100825.69;4996427;28;20030;-61
2024/02/17 04:08:54;;;;;;;22.92;12.55;;;;;;;6.44;75.39;100829.88;4997081;28;20073;-62
2024/02/17 04:11:19;;;;;;;24.38;12.45;;;;;;;6.38;76.10;100820.63;4995642;28;20034;-61
2024/02/17 04:13:45;;;;;;;22.27;11.13;;;;;;;6.36;75.87;100834.84;4997296;28;20042;-61
2024/02/17 04:16:10;;;;;;;20.45;12.05;;;;;;;6.33;76.58;100835.06;4995821;28;20042;-61
2024/02/17 04:18:36;;;;;;;22.50;11.45;;;;;;;6.34;75.70;100834.97;4999799;28;20040;-62
2024/02/17 04:21:03;;;;;;;24.92;12.38;;;;;;;6.31;75.94;100831.69;4998379;28;20062;-62
2024/02/17 04:23:29;;;;;;;22.63;11.13;;;;;;;6.21;75.25;100841.16;5000127;28;20057;-61
2024/02/17 04:25:56;;;;;;;20.63;11.43;;;;;;;6.12;75.73;100839.16;4999288;28;20332;-61
2024/02/17 04:28:21;;;;;;;18.60;10.38;;;;;;;6.08;76.06;100843.81;4999419;28;20044;-61
2024/02/17 04:30:47;;;;;;;20.25;10.80;;;;;;;6.00;76.34;100840.88;4999205;28;20061;-61
2024/02/17 04:33:12;;;;;;;19.98;9.98;;;;;;;5.97;75.88;100841.06;4998285;28;20306;-61
2024/02/17 04:35:38;;;;;;;19.15;10.02;;;;;;;5.95;76.00;100848.22;4999728;28;20085;-60
2024/02/17 04:38:03;;;;;;;17.75;10.00;;;;;;;5.91;76.17;100846.75;4999737;28;20034;-62
2024/02/17 04:40:29;;;;;;;17.38;9.20;;;;;;;5.84;76.71;100853.34;5000096;28;20046;-62
2024/02/17 04:42:56;;;;;;;18.77;10.07;;;;;;;5.83;76.04;100847.25;4998573;28;20037;-60
2024/02/17 04:45:22;;;;;;;20.92;10.25;;;;;;;5.75;75.97;100842.50;5000631;28;20038;-61
2024/02/17 04:47:48;;;;;;;21.13;10.68;;;;;;;5.75;76.17;100844.31;4998981;28;20201;-61
2024/02/17 04:50:14;;;;;;;18.20;10.68;;;;;;;5.66;76.72;100847.56;5000860;28;20034;-62
2024/02/17 04:52:41;;;;;;;19.80;11.50;;;;;;;5.64;77.34;100852.06;4998925;28;20264;-61
2024/02/17 04:55:06;;;;;;;22.33;11.18;;;;;;;5.63;76.84;100847.75;5000769;28;20049;-61
2024/02/17 04:57:32;;;;;;;20.95;11.65;;;;;;;5.56;77.45;100847.34;4998752;28;20308;-61
2024/02/17 04:59:57;;;;;;;19.77;11.68;;;;;;;5.54;76.95;100845.75;4999182;28;20054;-61
2024/02/17 05:02:23;;;;;;;26.65;14.30;;;;;;;5.50;77.29;100849.53;4998453;28;20038;-60
2024/02/17 05:04:49;;;;;;;22.50;13.20;;;;;;;5.44;77.36;100840.28;5000009;28;20034;-60
2024/02/17 05:07:14;;;;;;;21.15;12.95;;;;;;;5.47;77.63;100845.31;4998352;28;20041;-62
2024/02/17 05:09:40;;;;;;;22.77;11.95;;;;;;;5.53;77.44;100847.53;4999562;28;20073;-63
2024/02/17 05:12:05;;;;;;;21.58;12.18;;;;;;;5.54;76.19;100858.88;4997688;28;20038;-61
2024/02/17 05:14:30;;;;;;;23.27;12.95;;;;;;;5.54;76.17;100853.63;4999272;28;20439;-61
2024/02/17 05:16:56;;;;;;;30.63;16.08;;;;;;;5.57;76.00;100862.16;4998969;28;20050;-61
2024/02/17 05:19:21;;;;;;;35.80;16.63;;;;;;;5.60;76.10;100861.09;4999446;28;20034;-62
2024/02/17 05:21:47;;;;;;;41.60;19.77;;;;;;;5.64;75.41;100860.78;4998523;28;20038;-61
2024/02/17 05:24:12;;;;;;;36.20;17.30;;;;;;;5.67;75.61;100857.97;4998510;28;20076;-61
2024/02/17 05:26:39;;;;;;;29.65;14.50;;;;;;;5.64;76.00;100862.56;4998918;28;20386;-61
2024/02/17 05:29:06;;;;;;;24.83;13.13;;;;;;;5.62;75.97;100867.94;4997885;28;20065;-61
2024/02/17 05:31:33;;;;;;;28.00;15.40;;;;;;;5.62;75.54;100873.19;4998826;28;20030;-61
2024/02/17 05:33:59;;;;;;;31.67;16.65;;;;;;;5.56;75.85;100873.59;4998176;28;20035;-61
2024/02/17 05:36:25;;;;;;;29.40;17.02;;;;;;;5.60;76.27;100874.25;4999800;28;20375;-62
2024/02/17 05:38:51;;;;;;;26.17;15.18;;;;;;;5.66;75.57;100873.81;4997896;28;20406;-63
2024/02/17 05:41:17;;;;;;;29.27;16.38;;;;;;;5.71;75.11;100883.09;4998938;28;20042;-60
2024/02/17 05:43:42;;;;;;;26.77;16.13;;;;;;;5.76;75.35;100875.72;4997396;28;20262;-61
2024/02/17 05:46:08;;;;;;;28.88;15.43;;;;;;;5.86;74.66;100883.00;4999064;28;20042;-61
2024/02/17 05:48:34;;;;;;;21.75;13.45;;;;;;;5.89;74.90;100882.78;4998095;28;20197;-62
2024/02/17 05:50:59;;;;;;;22.15;13.48;;;;;;;5.91;74.46;100894.91;4998807;28;20044;-62
2024/02/17 05:53:25;;;;;;;28.60;13.82;;;;;;;5.97;74.28;100893.66;4997618;28;20053;-61
2024/02/17 05:55:51;;;;;;;24.77;14.68;;;;;;;5.83;74.19;100898.97;4998315;28;20259;-61
2024/02/17 05:58:16;;;;;;;19.65;11.60;;;;;;;5.87;74.35;100903.06;4997878;28;20313;-61
2024/02/17 06:00:41;;;;;;;17.08;11.48;;;;;;;5.76;74.83;100909.91;4997853;28;20046;-60
2024/02/17 06:03:08;;;;;;;22.83;11.75;;;;;;;5.73;75.13;100899.59;4998453;28;20038;-61
2024/02/17 06:05:33;;;;;;;27.35;14.38;;;;;;;5.95;74.15;100911.31;4998119;28;20034;-60
2024/02/17 06:07:59;;;;;;;21.38;12.57;;;;;;;6.03;74.35;100903.75;4999046;28;20092;-63
2024/02/17 06:10:24;;;;;;;20.60;12.40;;;;;;;6.13;73.90;100906.59;4997484;28;20030;-62
2024/02/17 06:12:50;;;;;;;21.50;13.07;;;;;;;6.14;73.68;100916.16;4998691;28;20255;-61
2024/02/17 06:15:16;;;;;;;25.35;13.23;;;;;;;6.05;74.33;100917.63;4996996;28;20275;-60
2024/02/17 06:17:43;;;;;;;21.40;10.88;;;;;;;6.08;74.35;100918.25;4998299;28;20034;-62
2024/02/17 06:22:57;;;;;;;16.27;8.93;;;;;;;6.16;75.43;100920.38;4998095;28;20073;-61
2024/02/17 06:25:22;;;;;;;21.20;11.23;;;;;;;6.22;75.38;100919.94;4997408;28;20313;-61
2024/02/17 06:27:49;;;;;;;22.38;12.65;;;;;;;6.37;75.11;100923.34;4997712;28;20189;-63
2024/02/17 06:30:14;;;;;;;20.65;12.98;;;;;;;6.52;75.66;100921.44;4996349;28;20066;-61
2024/02/17 06:32:43;;;;;;;27.42;13.00;;;;;;;6.70;75.12;100922.75;4997653;28;20271;-61
2024/02/17 06:35:12;;;;;;;22.80;12.90;;;;;;;6.88;73.56;100923.25;4997595;28;20062;-61
2024/02/17 06:37:37;;;;;;;25.08;15.00;;;;;;;7.02;73.37;100923.94;4997446;28;20448;-62
2024/02/17 06:40:03;;;;;;;33.75;17.70;;;;;;;7.13;73.44;100919.69;4996975;28;20053;-62
2024/02/17 06:42:29;;;;;;;38.95;20.83;;;;;;;7.19;73.02;100917.44;4996940;28;20378;-63
2024/02/17 06:44:54;;;;;;;29.20;17.67;;;;;;;7.22;72.61;100917.22;4997133;28;20230;-63
2024/02/17 06:47:20;;;;;;;24.58;14.82;;;;;;;7.33;72.31;100919.94;4996083;28;20096;-62
2024/02/17 06:49:46;;;;;;;28.55;14.57;;;;;;;7.39;73.16;100921.28;4997588;28;20042;-62
2024/02/17 06:52:11;;;;;;;25.70;13.65;;;;;;;7.54;72.66;100927.22;4996789;28;20046;-63
2024/02/17 06:54:37;;;;;;;25.23;12.25;;;;;;;7.67;72.44;100915.66;4998415;28;20125;-62
2024/02/17 06:57:03;;;;;;;23.05;12.77;;;;;;;7.85;71.61;100931.03;4996443;28;20030;-62
2024/02/17 06:59:29;;;;;;;20.65;12.20;;;;;;;7.96;71.02;100929.28;4997783;28;20034;-62
2024/02/17 07:01:54;;;;;;;21.67;14.98;;;;;;;8.11;71.01;100921.16;4996312;28;20034;-61
2024/02/17 07:04:20;;;;;;;23.02;13.57;;;;;;;8.32;69.38;100924.78;4998106;28;20046;-60
2024/02/17 07:06:46;;;;;;;27.55;16.08;;;;;;;8.35;69.07;100926.41;4996539;28;20038;-60
2024/02/17 07:09:16;;;;;;;42.58;21.23;;;;;;;8.34;70.07;100920.28;4997073;28;20066;-62
2024/02/17 07:11:42;;;;;;;24.20;14.02;;;;;;;8.44;70.04;100917.75;4996091;28;20034;-62
2024/02/17 07:14:08;;;;;;;21.92;12.77;;;;;;;8.54;69.45;100929.28;4996778;28;20042;-60
2024/02/17 07:16:33;;;;;;;19.30;11.55;;;;;;;8.60;69.21;100915.59;4996357;28;20057;-60
2024/02/17 07:18:59;;;;;;;35.22;16.92;;;;;;;8.67;68.56;100922.06;4996748;28;20046;-61
2024/02/17 07:21:25;;;;;;;16.98;9.57;;;;;;;8.80;68.86;100925.41;4996931;28;20031;-60
2024/02/17 07:23:51;;;;;;;17.65;9.40;;;;;;;8.75;69.69;100924.09;4997219;28;20057;-60
2024/02/17 07:26:17;;;;;;;13.70;8.68;;;;;;;8.92;69.06;100921.81;4998298;28;20046;-61
2024/02/17 07:28:42;;;;;;;16.67;10.07;;;;;;;9.02;69.15;100919.25;4995681;28;20335;-61
2024/02/17 07:31:10;;;;;;;17.38;9.18;;;;;;;9.17;68.84;100910.09;4997796;28;20237;-61
2024/02/17 07:33:38;;;;;;;15.27;9.13;;;;;;;9.17;69.15;100911.91;4996101;28;20061;-61
2024/02/17 07:36:04;;;;;;;16.52;8.05;;;;;;;9.31;68.66;100916.06;4995368;28;20631;-61
2024/02/17 07:38:30;;;;;;;19.42;9.93;;;;;;;9.18;68.03;100922.34;4997378;28;20228;-60
2024/02/17 07:40:55;;;;;;;36.70;16.58;;;;;;;9.32;68.40;100918.56;4996679;28;20352;-60
2024/02/17 07:43:21;;;;;;;21.45;11.18;;;;;;;9.23;69.07;100916.69;4996564;28;20327;-62
2024/02/17 07:45:49;;;;;;;17.48;10.30;;;;;;;9.44;68.79;100917.59;4997390;28;20042;-60
2024/02/17 07:48:15;;;;;;;22.92;11.02;;;;;;;9.51;68.10;100915.28;4997126;28;20331;-60
2024/02/17 07:50:42;;;;;;;18.50;10.52;;;;;;;9.56;68.46;100913.94;4997099;28;20038;-61
2024/02/17 07:53:08;;;;;;;18.23;10.07;;;;;;;9.56;68.53;100911.31;5000390;28;20217;-61
2024/02/17 07:55:33;;;;;;;21.55;9.73;;;;;;;9.75;68.08;100907.97;5000355;28;20046;-61
2024/02/17 07:57:59;;;;;;;27.60;13.63;;;;;;;9.66;68.66;100908.72;5000766;28;20122;-61
2024/02/17 08:00:24;;;;;;;19.88;10.25;;;;;;;9.63;68.76;100911.63;5000128;28;20374;-62
2024/02/17 08:02:51;;;;;;;34.83;16.42;;;;;;;9.58;68.89;100908.53;4999972;28;20069;-63
2024/02/17 08:05:17;;;;;;;18.23;9.40;;;;;;;9.59;68.87;100912.84;4999809;28;20038;-61
2024/02/17 08:07:43;;;;;;;23.77;15.88;;;;;;;9.58;70.06;100913.81;4999758;28;20057;-61
2024/02/17 08:10:10;;;;;;;13.75;9.32;;;;;;;9.76;69.11;100916.72;5000066;28;20042;-61
2024/02/17 08:12:36;;;;;;;18.23;9.20;;;;;;;9.83;68.86;100894.94;5000316;28;20040;-61
2024/02/17 08:15:01;;;;;;;16.77;10.00;;;;;;;10.06;68.64;100915.97;4999142;28;20220;-63
2024/02/17 08:17:26;;;;;;;46.20;20.05;;;;;;;10.06;68.45;100914.16;4999388;28;20034;-63
2024/02/17 08:19:52;;;;;;;19.75;11.13;;;;;;;10.27;68.52;100908.03;5003993;28;20350;-61
2024/02/17 08:22:18;;;;;;;20.75;11.90;;;;;;;10.19;68.38;100916.59;5000826;28;20578;-61
2024/02/17 08:24:43;;;;;;;18.30;10.40;;;;;;;10.33;68.00;100921.56;5001472;28;20066;-61
2024/02/17 08:27:12;;;;;;;28.63;14.60;;;;;;;10.43;67.55;100911.91;5000014;28;20287;-62
2024/02/17 08:29:37;;;;;;;19.02;10.25;;;;;;;10.51;67.78;100912.06;5000286;28;20038;-62
2024/02/17 08:32:03;;;;;;;18.38;9.88;;;;;;;10.28;68.06;100917.66;5000640;28;20130;-62
2024/02/17 08:34:28;;;;;;;15.98;9.20;;;;;;;10.20;69.49;100916.50;5000975;28;20101;-61
2024/02/17 08:36:54;;;;;;;14.82;8.98;;;;;;;10.63;67.55;100919.94;5000414;28;20080;-61
2024/02/17 08:39:19;;;;;;;16.20;10.00;;;;;;;10.72;66.29;100919.13;5000109;28;20038;-60
2024/02/17 08:41:45;;;;;;;28.65;15.95;;;;;;;10.91;66.01;100911.22;5000214;28;20112;-63
2024/02/17 08:44:10;;;;;;;20.40;11.32;;;;;;;10.95;66.01;100909.97;5000503;28;20034;-62
2024/02/17 08:46:35;;;;;;;13.77;8.82;;;;;;;10.82;65.39;100909.38;4999804;28;20376;-63
2024/02/17 08:49:01;;;;;;;16.45;9.07;;;;;;;10.88;65.80;100914.16;4998216;28;20052;-60
2024/02/17 08:51:26;;;;;;;18.73;10.70;;;;;;;10.88;66.63;100914.16;4998799;28;20031;-62
2024/02/17 08:53:53;;;;;;;19.90;10.38;;;;;;;10.96;66.04;100913.47;5000211;28;20076;-60
2024/02/17 08:56:20;;;;;;;16.25;10.05;;;;;;;10.95;66.58;100923.22;4998712;28;20069;-60
2024/02/17 08:58:46;;;;;;;30.67;13.52;;;;;;;11.14;65.76;100919.78;5000042;28;20038;-60
2024/02/17 09:01:11;;;;;;;15.05;9.52;;;;;;;11.04;65.94;100895.06;4998671;28;20078;-62
2024/02/17 09:03:37;;;;;;;19.60;11.65;;;;;;;11.16;65.20;100917.84;4998409;28;20042;-61
2024/02/17 09:06:03;;;;;;;16.35;9.98;;;;;;;11.36;65.59;100921.34;4999802;28;20038;-61
2024/02/17 09:08:28;;;;;;;24.08;12.98;;;;;;;11.33;65.57;100911.00;5000185;28;20054;-62
2024/02/17 09:10:54;;;;;;;17.45;9.18;;;;;;;11.52;64.36;100913.69;5000571;28;20041;-61
2024/02/17 09:13:19;;;;;;;19.45;10.07;;;;;;;11.43;65.61;100918.00;4999391;28;20041;-61
2024/02/17 09:15:45;;;;;;;17.48;9.95;;;;;;;11.55;66.37;100917.88;4999659;28;20104;-61
2024/02/17 09:18:10;;;;;;;19.48;9.77;;;;;;;11.49;64.67;100913.97;4999143;28;20061;-61
2024/02/17 09:20:35;;;;;;;15.07;9.30;;;;;;;11.67;64.69;100912.31;4999570;28;20034;-62
2024/02/17 09:23:02;;;;;;;13.30;8.30;;;;;;;11.75;63.17;100911.59;4999703;28;20209;-63
2024/02/17 09:25:28;;;;;;;15.02;9.45;;;;;;;11.80;63.44;100910.22;4999771;28;20042;-61
2024/02/17 09:27:53;;;;;;;12.35;8.45;;;;;;;11.89;63.27;100899.75;4999599;28;20108;-61
2024/02/17 09:30:19;;;;;;;22.08;10.88;;;;;;;11.86;63.21;100902.69;4999012;28;20389;-61
2024/02/17 09:32:44;;;;;;;30.05;16.98;;;;;;;11.79;64.90;100902.41;4999682;28;20038;-62
2024/02/17 09:35:10;;;;;;;29.80;13.63;;;;;;;11.86;64.65;100898.22;4999482;28;20275;-62
2024/02/17 09:37:38;;;;;;;28.10;13.68;;;;;;;11.79;64.21;100900.59;4999730;28;20038;-62
2024/02/17 09:40:06;;;;;;;13.18;8.00;;;;;;;11.81;62.09;100895.97;4999462;28;20054;-61
2024/02/17 09:42:31;;;;;;;13.15;8.40;;;;;;;11.80;63.38;100890.81;4999384;28;20034;-62
2024/02/17 09:44:57;;;;;;;12.43;7.60;;;;;;;11.77;63.56;100891.06;4999375;28;20026;-62
2024/02/17 09:47:23;;;;;;;14.27;8.25;;;;;;;11.77;64.43;100894.59;4999162;28;20244;-63
2024/02/17 09:49:49;;;;;;;12.95;7.93;;;;;;;11.79;63.65;100895.28;4998841;28;20332;-62
2024/02/17 09:52:17;;;;;;;14.15;8.60;;;;;;;11.88;63.58;100890.94;4998829;28;20034;-62
2024/02/17 09:54:43;;;;;;;13.32;8.45;;;;;;;11.86;64.18;100882.28;4997884;28;20046;-62
2024/02/17 09:57:09;;;;;;;15.00;8.82;;;;;;;11.96;63.94;100882.25;4998674;28;20049;-62
2024/02/17 09:59:34;;;;;;;15.25;8.38;;;;;;;12.03;62.91;100881.53;5000363;28;20244;-62
2024/02/17 10:02:02;;;;;;;13.85;8.82;;;;;;;12.12;62.15;100877.19;4999565;28;20030;-62
2024/02/17 10:04:28;;;;;;;16.30;7.80;;;;;;;12.25;61.78;100880.34;5000070;28;20037;-61
2024/02/17 10:07:00;;;;;;;14.68;9.10;;;;;;;12.32;60.25;100870.81;4999928;28;20049;-61
2024/02/17 10:09:27;;;;;;;14.40;9.05;;;;;;;12.36;61.46;100864.25;5000150;28;20303;-63
2024/02/17 10:11:54;;;;;;;14.32;8.48;;;;;;;12.42;60.75;100862.81;5000261;28;20038;-62
2024/02/17 10:14:23;;;;;;;13.32;8.35;;;;;;;12.41;61.89;100858.50;5000115;28;20046;-62
2024/02/17 10:16:56;;;;;;;12.68;8.68;;;;;;;11.89;62.71;100851.97;4999238;28;20061;-62
2024/02/17 10:19:22;;;;;;;15.10;8.82;;;;;;;11.98;63.59;100845.78;5000207;28;20042;-61
2024/02/17 10:21:48;;;;;;;14.40;8.00;;;;;;;11.62;63.47;100850.88;4999393;28;20096;-62
2024/02/17 10:24:13;;;;;;;13.55;8.80;;;;;;;11.55;64.26;100846.28;4999697;28;20311;-63
2024/02/17 10:26:39;;;;;;;13.70;8.43;;;;;;;11.75;62.69;100839.94;4999113;28;20042;-61
2024/02/17 10:29:05;;;;;;;14.95;8.55;;;;;;;11.86;62.42;100845.13;4999027;28;20104;-61
2024/02/17 10:31:30;;;;;;;14.25;9.50;;;;;;;11.97;61.84;100841.47;4998903;28;20030;-62
2024/02/17 10:33:56;;;;;;;13.95;8.98;;;;;;;11.93;62.60;100840.91;4999482;28;20267;-62
2024/02/17 10:36:22;;;;;;;16.98;9.63;;;;;;;11.87;62.65;100833.53;4998987;28;20336;-62
2024/02/17 10:38:49;;;;;;;29.48;13.27;;;;;;;11.86;62.67;100837.16;4999133;28;20041;-61
2024/02/17 10:41:14;;;;;;;17.67;8.77;;;;;;;11.93;62.51;100832.13;4998966;28;20053;-61
2024/02/17 10:43:43;;;;;;;15.48;8.45;;;;;;;11.87;62.43;100833.53;4999099;28;20336;-61
2024/02/17 10:46:20;;;;;;;13.95;8.05;;;;;;;12.05;62.94;100834.47;4999109;28;20022;-61
2024/02/17 10:49:01;;;;;;;13.30;8.48;;;;;;;11.95;62.69;100835.47;4999064;28;20113;-63
2024/02/17 10:51:28;;;;;;;13.48;8.50;;;;;;;11.98;62.54;100828.06;4999226;28;20041;-61
2024/02/17 10:54:04;;;;;;;14.48;8.52;;;;;;;11.93;63.07;100826.81;4999295;28;20072;-61
2024/02/17 10:56:32;;;;;;;17.27;8.85;;;;;;;11.95;61.91;100828.34;4998308;28;20065;-61
2024/02/17 10:58:59;;;;;;;16.30;9.65;;;;;;;12.00;62.06;100817.28;4998344;28;20042;-61
2024/02/17 11:01:26;;;;;;;17.42;9.50;;;;;;;12.04;61.48;100826.63;4998284;28;20311;-61
2024/02/17 11:03:55;;;;;;;15.45;7.57;;;;;;;12.10;62.15;100824.22;4998834;28;20045;-61
2024/02/17 11:06:21;;;;;;;11.82;6.97;;;;;;;12.21;61.87;100827.69;4999004;28;20109;-61
2024/02/17 11:08:47;;;;;;;14.43;7.97;;;;;;;12.30;60.97;100819.69;4998781;28;20053;-63
2024/02/17 11:11:41;;;;;;;14.75;7.88;;;;;;;12.23;62.17;100820.41;4998958;28;20043;-62
2024/02/17 11:14:25;;;;;;;;;;;;;;;12.11;62.26;100825.06;4990263;28;20050;-62